Time;durP1;ratioP1;P1;durP2;ratioP2;P2;SDS_P1;SDS_P2;PMS_P1;PMS_P2;Temp;Humidity;BMP_temperature;BMP_pressure;BME280_temperature;BME280_humidity;BME280_pressure;Samples;Min_cycle;Max_cycle;Signal;HPM_P1;HPM_P2
2023/02/11 00:01:19;;;;;;;29.83;14.87;;;;;;;-0.91;100.00;102349.56;5060843;28;20218;-70
2023/02/11 00:03:46;;;;;;;33.03;16.07;;;;;;;-0.91;100.00;102348.69;5061464;28;20195;-70
2023/02/11 00:06:12;;;;;;;30.33;16.63;;;;;;;-0.89;100.00;102332.59;5061555;28;20293;-70
2023/02/11 00:08:39;;;;;;;31.87;16.30;;;;;;;-0.88;100.00;102331.78;5065246;28;20654;-70
2023/02/11 00:11:06;;;;;;;31.63;15.77;;;;;;;-0.92;100.00;102336.69;5046908;28;20209;-70
2023/02/11 00:13:34;;;;;;;32.93;15.57;;;;;;;-0.90;100.00;102332.50;5061608;28;20195;-70
2023/02/11 00:16:05;;;;;;;34.57;16.53;;;;;;;-0.91;100.00;102321.41;5062288;28;20227;-70
2023/02/11 00:18:31;;;;;;;34.53;16.07;;;;;;;-0.88;100.00;102308.75;5040002;28;20195;-70
2023/02/11 00:20:58;;;;;;;35.37;18.17;;;;;;;-0.86;100.00;102311.34;5064935;28;20686;-70
2023/02/11 00:23:24;;;;;;;33.50;17.43;;;;;;;-0.88;100.00;102305.28;5066489;28;20209;-70
2023/02/11 00:25:50;;;;;;;35.17;17.10;;;;;;;-0.91;100.00;102303.47;5058437;28;20654;-70
2023/02/11 00:28:17;;;;;;;35.40;17.17;;;;;;;-0.91;100.00;102288.09;5056159;28;20214;-70
2023/02/11 00:30:44;;;;;;;35.40;16.37;;;;;;;-0.86;100.00;102281.50;5062085;28;20684;-70
2023/02/11 00:33:11;;;;;;;33.30;17.03;;;;;;;-0.83;100.00;102283.31;5042715;28;20362;-70
2023/02/11 00:35:38;;;;;;;35.87;16.70;;;;;;;-0.81;100.00;102286.84;5045953;28;20562;-70
2023/02/11 00:38:04;;;;;;;32.83;18.17;;;;;;;-0.76;100.00;102275.13;5054433;28;20272;-70
2023/02/11 00:40:31;;;;;;;31.70;16.73;;;;;;;-0.78;100.00;102279.31;5077599;28;20201;-70
2023/02/11 00:42:57;;;;;;;33.97;17.23;;;;;;;-0.72;100.00;102278.69;5069695;28;20264;-70
2023/02/11 00:45:25;;;;;;;34.83;17.33;;;;;;;-0.75;100.00;102274.34;5054334;28;20198;-69
2023/02/11 00:47:53;;;;;;;36.53;16.03;;;;;;;-0.76;100.00;102280.25;5068357;28;20290;-69
2023/02/11 00:50:20;;;;;;;37.83;18.23;;;;;;;-0.78;100.00;102277.59;5068734;28;20195;-69
2023/02/11 00:52:48;;;;;;;43.40;18.03;;;;;;;-0.77;100.00;102279.38;5061954;28;20223;-70
2023/02/11 00:55:15;;;;;;;33.73;17.70;;;;;;;-0.77;100.00;102288.75;5064372;28;20198;-70
2023/02/11 00:57:41;;;;;;;32.93;17.53;;;;;;;-0.75;100.00;102286.28;5064040;28;20598;-70
2023/02/11 01:00:09;;;;;;;34.70;17.33;;;;;;;-0.74;100.00;102283.75;5046719;28;20206;-70
2023/02/11 01:02:36;;;;;;;31.47;16.33;;;;;;;-0.64;100.00;102293.63;5064755;28;20653;-70
2023/02/11 01:05:05;;;;;;;32.00;17.97;;;;;;;-0.59;100.00;102304.09;5071288;28;20194;-70
2023/02/11 01:07:32;;;;;;;40.17;18.43;;;;;;;-0.61;100.00;102288.66;5067597;28;20737;-70
2023/02/11 01:09:58;;;;;;;37.20;16.90;;;;;;;-0.63;100.00;102267.22;5046799;28;20218;-69
2023/02/11 01:12:25;;;;;;;33.00;16.50;;;;;;;-0.60;100.00;102271.59;5066028;28;20641;-69
2023/02/11 01:14:51;;;;;;;34.40;16.97;;;;;;;-0.61;100.00;102275.84;5066581;28;20205;-70
2023/02/11 01:17:19;;;;;;;31.87;16.73;;;;;;;-0.60;100.00;102275.03;5056226;28;20226;-70
2023/02/11 01:19:45;;;;;;;34.97;17.13;;;;;;;-0.56;100.00;102283.75;5068708;28;20485;-69
2023/02/11 01:22:13;;;;;;;31.73;16.20;;;;;;;-0.51;100.00;102269.47;5073053;28;20203;-70
2023/02/11 01:24:39;;;;;;;32.60;16.97;;;;;;;-0.48;100.00;102261.88;5047344;28;20702;-69
2023/02/11 01:27:07;;;;;;;32.83;16.00;;;;;;;-0.42;100.00;102258.75;5049012;28;20275;-69
2023/02/11 01:29:34;;;;;;;30.87;15.50;;;;;;;-0.34;100.00;102242.00;5068728;28;20198;-68
2023/02/11 01:32:01;;;;;;;34.10;16.83;;;;;;;-0.32;100.00;102237.81;5045835;28;20212;-70
2023/02/11 01:34:28;;;;;;;37.07;17.90;;;;;;;-0.30;100.00;102236.22;5045246;28;20242;-69
2023/02/11 01:36:57;;;;;;;33.27;16.67;;;;;;;-0.27;100.00;102230.34;5052652;28;20321;-70
2023/02/11 01:39:26;;;;;;;35.47;15.40;;;;;;;-0.25;100.00;102227.03;5078125;28;20208;-70
2023/02/11 01:41:53;;;;;;;29.33;15.60;;;;;;;-0.22;100.00;102231.44;5053738;28;20207;-70
2023/02/11 01:44:25;;;;;;;31.93;16.37;;;;;;;-0.20;100.00;102229.81;5051638;28;20241;-69
2023/02/11 01:46:52;;;;;;;28.20;15.33;;;;;;;-0.14;100.00;102235.22;5065859;28;20732;-69
2023/02/11 01:49:22;;;;;;;31.83;15.43;;;;;;;-0.12;100.00;102248.97;5069036;28;20661;-69
2023/02/11 01:51:54;;;;;;;29.13;15.97;;;;;;;-0.07;100.00;102251.72;5066026;28;20199;-70
2023/02/11 01:57:24;;;;;;;29.57;15.33;;;;;;;0.01;100.00;102249.50;5069657;28;20219;-70
2023/02/11 02:00:04;;;;;;;29.67;15.33;;;;;;;0.03;100.00;102243.63;5066947;28;20210;-70
2023/02/11 02:02:46;;;;;;;29.50;15.40;;;;;;;0.08;100.00;102236.13;5070680;28;20639;-70
2023/02/11 02:05:22;;;;;;;29.93;15.47;;;;;;;0.06;100.00;102227.50;5049543;28;20291;-69
2023/02/11 02:07:56;;;;;;;25.90;14.57;;;;;;;0.06;100.00;102219.81;5048107;28;20229;-70
2023/02/11 02:10:25;;;;;;;29.33;14.60;;;;;;;0.11;100.00;102224.31;5071499;28;20295;-68
2023/02/11 02:12:54;;;;;;;28.13;14.33;;;;;;;0.14;100.00;102205.59;5066207;28;20227;-69
2023/02/11 02:15:25;;;;;;;26.00;14.77;;;;;;;0.17;100.00;102195.47;5058435;28;20206;-70
2023/02/11 02:18:17;;;;;;;27.53;15.13;;;;;;;0.20;100.00;102193.03;5055806;28;20221;-70
2023/02/11 02:21:24;;;;;;;33.53;15.33;;;;;;;0.26;100.00;102182.16;5068931;28;20566;-70
2023/02/11 02:24:17;;;;;;;31.13;15.53;;;;;;;0.26;100.00;102171.88;5064617;28;20277;-70
2023/02/11 02:27:09;;;;;;;28.87;14.97;;;;;;;0.27;100.00;102169.38;5073202;28;20217;-70
2023/02/11 02:30:17;;;;;;;24.37;13.60;;;;;;;0.30;100.00;102166.06;5040401;28;20228;-70
2023/02/11 02:33:05;;;;;;;25.13;13.03;;;;;;;0.32;100.00;102169.59;5051549;28;20308;-70
2023/02/11 02:35:40;;;;;;;25.43;14.30;;;;;;;0.38;100.00;102156.97;5068679;28;20197;-69
2023/02/11 02:38:11;;;;;;;24.60;13.03;;;;;;;0.38;100.00;102149.28;5069318;28;20601;-70
2023/02/11 02:40:44;;;;;;;26.07;13.63;;;;;;;0.42;100.00;102145.16;5072038;28;20202;-70
2023/02/11 02:43:11;;;;;;;29.27;13.73;;;;;;;0.44;100.00;102136.72;5063060;28;20697;-70
2023/02/11 02:45:38;;;;;;;28.17;14.43;;;;;;;0.49;100.00;102129.16;5070025;28;20194;-69
2023/02/11 02:48:06;;;;;;;27.00;14.43;;;;;;;0.50;100.00;102110.41;5044849;28;20651;-68
2023/02/11 02:50:36;;;;;;;27.73;13.90;;;;;;;0.51;100.00;102112.13;5065783;28;20206;-70
2023/02/11 02:53:17;;;;;;;30.23;14.20;;;;;;;0.55;100.00;102114.91;5069293;28;20709;-70
2023/02/11 02:55:54;;;;;;;29.00;14.00;;;;;;;0.56;100.00;102108.06;5066449;28;20223;-68
2023/02/11 02:58:44;;;;;;;23.67;14.10;;;;;;;0.62;100.00;102122.84;5062934;28;21265;-69
2023/02/11 03:01:22;;;;;;;29.33;14.03;;;;;;;0.63;100.00;102122.88;5062146;28;20199;-68
2023/02/11 03:03:58;;;;;;;28.03;14.13;;;;;;;0.63;100.00;102128.00;5064947;28;20202;-69
2023/02/11 03:06:32;;;;;;;26.40;14.40;;;;;;;0.67;100.00;102140.19;5070113;28;20228;-68
2023/02/11 03:09:05;;;;;;;24.87;12.93;;;;;;;0.69;100.00;102138.53;5066534;28;20198;-70
2023/02/11 03:11:32;;;;;;;27.13;14.17;;;;;;;0.70;100.00;102141.97;5068101;28;20199;-69
2023/02/11 03:14:02;;;;;;;25.40;13.50;;;;;;;0.77;100.00;102149.09;5042296;28;20509;-68
2023/02/11 03:16:34;;;;;;;27.97;14.43;;;;;;;0.77;100.00;102149.09;5069547;28;20241;-70
2023/02/11 03:19:10;;;;;;;24.90;13.33;;;;;;;0.78;100.00;102142.28;5047988;28;20770;-69
2023/02/11 03:21:39;;;;;;;27.27;13.60;;;;;;;0.78;100.00;102143.16;5068070;28;20201;-70
2023/02/11 03:24:08;;;;;;;24.30;13.57;;;;;;;0.80;100.00;102133.81;5070275;28;20204;-69
2023/02/11 03:26:39;;;;;;;25.80;12.83;;;;;;;0.81;100.00;102132.09;5072914;28;20242;-70
2023/02/11 03:29:14;;;;;;;26.47;12.53;;;;;;;0.82;100.00;102132.16;5073377;28;20717;-69
2023/02/11 03:31:51;;;;;;;25.20;13.27;;;;;;;0.81;100.00;102122.72;5051801;28;20293;-69
2023/02/11 03:34:29;;;;;;;26.27;13.83;;;;;;;0.77;100.00;102120.84;5070017;28;20209;-70
2023/02/11 03:37:00;;;;;;;25.67;13.20;;;;;;;0.81;100.00;102120.16;5050230;28;20303;-69
2023/02/11 03:39:33;;;;;;;25.47;14.37;;;;;;;0.82;100.00;102124.47;5065968;28;20592;-69
2023/02/11 03:42:04;;;;;;;28.37;13.63;;;;;;;0.83;100.00;102115.09;5061459;28;20202;-70
2023/02/11 03:44:36;;;;;;;25.23;13.60;;;;;;;0.85;100.00;102116.03;5065791;28;20449;-70
2023/02/11 03:47:05;;;;;;;24.20;12.77;;;;;;;0.84;100.00;102114.25;5068141;28;21683;-70
2023/02/11 03:49:35;;;;;;;24.80;13.00;;;;;;;0.84;100.00;102117.69;5053011;28;20206;-70
2023/02/11 03:52:04;;;;;;;26.77;13.80;;;;;;;0.85;100.00;102106.59;5050120;28;20193;-68
2023/02/11 03:54:31;;;;;;;22.50;13.47;;;;;;;0.87;100.00;102099.84;5066551;28;20229;-70
2023/02/11 03:57:00;;;;;;;24.13;12.87;;;;;;;0.85;100.00;102100.59;5058758;28;20219;-69
2023/02/11 03:59:26;;;;;;;26.43;13.87;;;;;;;0.87;100.00;102101.53;5050609;28;20599;-69
2023/02/11 04:01:53;;;;;;;25.23;13.40;;;;;;;0.86;100.00;102097.19;5070693;28;20194;-70
2023/02/11 04:04:20;;;;;;;24.37;13.47;;;;;;;0.88;100.00;102096.47;5071523;28;20190;-70
2023/02/11 04:06:47;;;;;;;26.33;14.00;;;;;;;0.92;100.00;102094.88;5064116;28;20482;-69
2023/02/11 04:09:14;;;;;;;23.07;13.20;;;;;;;0.92;100.00;102092.31;5066787;28;20226;-69
2023/02/11 04:11:40;;;;;;;27.30;13.73;;;;;;;0.96;100.00;102090.72;5066113;28;20286;-68
2023/02/11 04:14:07;;;;;;;25.07;13.73;;;;;;;1.01;100.00;102081.50;5061567;28;20579;-68
2023/02/11 04:16:33;;;;;;;30.17;15.37;;;;;;;1.02;100.00;102081.56;5052092;28;20771;-70
2023/02/11 04:19:00;;;;;;;25.40;15.17;;;;;;;1.04;100.00;102084.16;5066933;28;20614;-70
2023/02/11 04:21:26;;;;;;;29.50;13.57;;;;;;;1.08;100.00;102076.63;5073952;28;20203;-70
2023/02/11 04:23:54;;;;;;;25.77;13.43;;;;;;;1.09;100.00;102091.22;5069534;28;20559;-68
2023/02/11 04:26:20;;;;;;;23.40;12.73;;;;;;;1.09;100.00;102088.66;5069847;28;20221;-70
2023/02/11 04:28:47;;;;;;;30.23;14.30;;;;;;;1.12;100.00;102080.19;5069609;28;20194;-70
2023/02/11 04:31:13;;;;;;;28.33;14.50;;;;;;;1.20;100.00;102088.19;5067204;28;20637;-70
2023/02/11 04:33:39;;;;;;;23.97;13.03;;;;;;;1.21;100.00;102079.63;5064247;28;20225;-69
2023/02/11 04:36:07;;;;;;;27.07;14.43;;;;;;;1.24;100.00;102083.19;5048982;28;20567;-69
2023/02/11 04:38:33;;;;;;;23.57;13.43;;;;;;;1.27;100.00;102078.16;5074065;28;20202;-70
2023/02/11 04:41:02;;;;;;;27.40;14.20;;;;;;;1.25;100.00;102081.47;5062942;28;20209;-70
2023/02/11 04:43:29;;;;;;;27.70;14.50;;;;;;;1.32;100.00;102079.19;5067891;28;20197;-69
2023/02/11 04:45:56;;;;;;;28.17;14.03;;;;;;;1.30;100.00;102072.25;5065619;28;20222;-70
2023/02/11 04:48:23;;;;;;;25.17;14.37;;;;;;;1.31;100.00;102074.00;5070234;28;20203;-68
2023/02/11 04:50:49;;;;;;;26.63;14.60;;;;;;;1.35;100.00;102072.41;5063223;28;21013;-70
2023/02/11 04:53:15;;;;;;;27.70;15.73;;;;;;;1.38;100.00;102077.66;5068631;28;20209;-68
2023/02/11 04:55:42;;;;;;;23.10;14.07;;;;;;;1.39;100.00;102074.25;5066637;28;20198;-70
2023/02/11 04:58:09;;;;;;;28.77;13.97;;;;;;;1.39;100.00;102072.59;5066830;28;20401;-68
2023/02/11 05:00:36;;;;;;;24.40;14.90;;;;;;;1.37;100.00;102075.91;5071322;28;20205;-69
2023/02/11 05:03:02;;;;;;;27.47;13.90;;;;;;;1.37;100.00;102066.50;5064589;28;20240;-69
2023/02/11 05:05:29;;;;;;;32.97;15.23;;;;;;;1.38;100.00;102075.09;5068148;28;20205;-70
2023/02/11 05:07:55;;;;;;;25.43;14.30;;;;;;;1.37;100.00;102069.06;5069920;28;20229;-68
2023/02/11 05:10:21;;;;;;;28.67;14.60;;;;;;;1.41;100.00;102063.22;5066975;28;20225;-70
2023/02/11 05:12:48;;;;;;;24.93;14.80;;;;;;;1.41;100.00;102064.94;5074573;28;20201;-70
2023/02/11 05:15:16;;;;;;;30.10;15.13;;;;;;;1.39;100.00;102058.84;5079644;28;20198;-69
2023/02/11 05:17:42;;;;;;;25.20;14.17;;;;;;;1.42;100.00;102053.81;5073263;28;20222;-68
2023/02/11 05:20:10;;;;;;;29.50;14.97;;;;;;;1.43;100.00;102053.00;5078092;28;20202;-70
2023/02/11 05:22:36;;;;;;;26.43;15.43;;;;;;;1.44;100.00;102053.06;5074725;28;20201;-69
2023/02/11 05:25:03;;;;;;;24.53;13.60;;;;;;;1.43;100.00;102056.44;5073199;28;20199;-70
2023/02/11 05:27:30;;;;;;;27.00;14.87;;;;;;;1.44;100.00;102054.72;5066223;28;20202;-68
2023/02/11 05:29:56;;;;;;;31.10;15.80;;;;;;;1.43;100.00;102055.56;5079731;28;20208;-69
2023/02/11 05:32:24;;;;;;;26.60;15.13;;;;;;;1.41;100.00;102055.50;5074145;28;20206;-70
2023/02/11 05:34:50;;;;;;;27.77;15.93;;;;;;;1.39;100.00;102051.13;5072716;28;20862;-69
2023/02/11 05:37:17;;;;;;;26.27;13.97;;;;;;;1.42;100.00;102048.66;5066867;28;20744;-69
2023/02/11 05:39:43;;;;;;;33.40;15.67;;;;;;;1.41;100.00;102047.81;5071718;28;20198;-69
2023/02/11 05:42:09;;;;;;;34.07;16.17;;;;;;;1.40;100.00;102040.91;5068691;28;20202;-70
2023/02/11 05:44:36;;;;;;;30.90;15.70;;;;;;;1.44;100.00;102045.34;5045968;28;20203;-68
2023/02/11 05:47:03;;;;;;;30.57;15.10;;;;;;;1.45;100.00;102035.94;5063214;28;20222;-70
2023/02/11 05:49:30;;;;;;;33.70;16.30;;;;;;;1.45;100.00;102035.94;5073130;28;20201;-69
2023/02/11 05:51:57;;;;;;;30.53;15.17;;;;;;;1.45;100.00;102030.78;5063753;28;20557;-69
2023/02/11 05:54:23;;;;;;;29.43;16.30;;;;;;;1.45;100.00;102017.94;5046777;28;20704;-70
2023/02/11 05:56:49;;;;;;;32.93;15.63;;;;;;;1.46;100.00;102022.25;5057993;28;20249;-67
2023/02/11 05:59:16;;;;;;;36.27;15.87;;;;;;;1.45;100.00;102020.50;5068112;28;20228;-69
2023/02/11 06:01:42;;;;;;;29.90;16.47;;;;;;;1.50;100.00;102024.97;5073988;28;20190;-69
2023/02/11 06:04:08;;;;;;;31.87;15.87;;;;;;;1.52;100.00;102025.91;5061590;28;20199;-68
2023/02/11 06:06:36;;;;;;;30.07;16.43;;;;;;;1.52;100.00;102022.47;5047834;28;20222;-69
2023/02/11 06:09:03;;;;;;;33.60;16.57;;;;;;;1.55;100.00;102011.38;5074829;28;20235;-69
2023/02/11 06:11:30;;;;;;;30.43;16.63;;;;;;;1.55;100.00;102012.28;5076342;28;20238;-70
2023/02/11 06:13:56;;;;;;;33.40;16.27;;;;;;;1.54;100.00;102014.81;5069831;28;20222;-70
2023/02/11 06:16:22;;;;;;;30.47;15.67;;;;;;;1.58;100.00;102004.66;5073877;28;20225;-70
2023/02/11 06:18:49;;;;;;;31.50;16.07;;;;;;;1.59;100.00;101996.13;5067547;28;20605;-69
2023/02/11 06:21:15;;;;;;;30.43;16.43;;;;;;;1.62;100.00;101993.66;5052990;28;20229;-69
2023/02/11 06:23:43;;;;;;;39.57;16.97;;;;;;;1.65;100.00;102005.72;5071582;28;20194;-69
2023/02/11 06:26:16;;;;;;;29.23;16.53;;;;;;;1.65;100.00;101996.34;5072762;28;20227;-69
2023/02/11 06:28:43;;;;;;;33.83;16.73;;;;;;;1.61;100.00;101999.63;5069669;28;20282;-69
2023/02/11 06:31:10;;;;;;;30.17;16.03;;;;;;;1.68;100.00;101998.13;5071643;28;20199;-69
2023/02/11 06:33:37;;;;;;;33.73;16.73;;;;;;;1.68;100.00;102001.56;5073533;28;20267;-69
2023/02/11 06:36:11;;;;;;;34.10;16.23;;;;;;;1.70;100.00;102002.47;5071544;28;20249;-70
2023/02/11 06:38:38;;;;;;;33.27;16.57;;;;;;;1.75;100.00;101999.19;5061369;28;20210;-70
2023/02/11 06:41:05;;;;;;;28.37;15.60;;;;;;;1.78;100.00;102009.59;5068690;28;20774;-71
2023/02/11 06:43:32;;;;;;;34.47;16.03;;;;;;;1.78;100.00;102005.31;5069506;28;20201;-70
2023/02/11 06:45:58;;;;;;;27.87;15.10;;;;;;;1.76;100.00;102008.66;5068853;28;20261;-70
2023/02/11 06:48:25;;;;;;;33.23;15.70;;;;;;;1.82;100.00;102011.44;5067741;28;20202;-70
2023/02/11 06:50:51;;;;;;;33.90;16.20;;;;;;;1.85;100.00;102009.81;5051364;28;20198;-70
2023/02/11 06:53:17;;;;;;;30.30;16.60;;;;;;;1.85;100.00;102017.53;5065102;28;20234;-70
2023/02/11 06:55:44;;;;;;;27.70;15.97;;;;;;;1.92;100.00;102022.88;5064354;28;21041;-70
2023/02/11 06:58:11;;;;;;;34.20;15.77;;;;;;;1.96;100.00;102032.44;5060922;28;20195;-70
2023/02/11 07:00:38;;;;;;;32.50;15.53;;;;;;;1.96;100.00;102033.31;5042243;28;20234;-70
2023/02/11 07:03:04;;;;;;;33.30;15.23;;;;;;;1.94;100.00;102027.25;5070084;28;20214;-70
2023/02/11 07:05:33;;;;;;;33.90;15.27;;;;;;;1.99;100.00;102025.69;5069039;28;20206;-70
2023/02/11 07:07:59;;;;;;;30.83;16.10;;;;;;;1.99;100.00;102029.97;5059489;28;20206;-70
2023/02/11 07:10:25;;;;;;;31.10;14.87;;;;;;;2.01;100.00;102029.19;5064314;28;20195;-70
2023/02/11 07:12:52;;;;;;;31.07;15.17;;;;;;;2.00;100.00;102031.72;5064628;28;20199;-70
2023/02/11 07:15:19;;;;;;;31.87;16.17;;;;;;;2.01;100.00;102041.19;5061983;28;20211;-70
2023/02/11 07:17:46;;;;;;;29.67;15.60;;;;;;;2.02;100.00;102043.81;5061591;28;20597;-70
2023/02/11 07:20:13;;;;;;;29.90;15.27;;;;;;;2.01;100.00;102048.91;5042003;28;20198;-70
2023/02/11 07:22:39;;;;;;;31.30;15.60;;;;;;;2.00;100.00;102039.44;5048611;28;20634;-70
2023/02/11 07:25:06;;;;;;;33.10;15.67;;;;;;;1.99;100.00;102054.00;5063513;28;20937;-70
2023/02/11 07:27:32;;;;;;;31.17;16.07;;;;;;;2.01;100.00;102049.78;5060986;28;20417;-70
2023/02/11 07:29:59;;;;;;;31.07;15.33;;;;;;;2.00;100.00;102042.00;5063083;28;20221;-70
2023/02/11 07:32:26;;;;;;;29.60;15.50;;;;;;;2.01;100.00;102039.47;5064098;28;20199;-70
2023/02/11 07:34:53;;;;;;;34.60;15.43;;;;;;;2.01;100.00;102038.63;5045450;28;20230;-71
2023/02/11 07:37:19;;;;;;;26.10;14.63;;;;;;;2.00;100.00;102034.28;5067932;28;20226;-70
2023/02/11 07:39:46;;;;;;;33.07;16.43;;;;;;;1.99;100.00;102028.28;5062579;28;20291;-70
2023/02/11 07:42:12;;;;;;;29.10;15.63;;;;;;;2.03;100.00;102024.09;5066685;28;20199;-70
2023/02/11 07:44:39;;;;;;;31.37;16.07;;;;;;;2.01;100.00;102015.47;5071355;28;20198;-70
2023/02/11 07:47:05;;;;;;;25.47;14.93;;;;;;;2.01;100.00;102018.91;5071312;28;20264;-70
2023/02/11 07:49:33;;;;;;;35.07;16.03;;;;;;;2.02;100.00;102012.94;5068641;28;20198;-70
2023/02/11 07:51:59;;;;;;;33.20;16.27;;;;;;;2.04;100.00;102002.66;5060658;28;20210;-71
2023/02/11 07:54:25;;;;;;;26.93;14.93;;;;;;;2.09;100.00;102008.84;5059453;28;20222;-70
2023/02/11 07:56:52;;;;;;;32.13;14.80;;;;;;;2.13;100.00;101989.22;5070994;28;20221;-70
2023/02/11 07:59:18;;;;;;;33.50;15.83;;;;;;;2.20;100.00;101994.59;5065785;28;20202;-70
2023/02/11 08:01:45;;;;;;;30.83;15.70;;;;;;;2.31;100.00;101992.34;5060487;28;20209;-70
2023/02/11 08:04:11;;;;;;;30.47;15.67;;;;;;;2.37;100.00;101997.66;5051240;28;20190;-70
2023/02/11 08:06:42;;;;;;;32.60;15.90;;;;;;;2.41;100.00;101990.91;5065266;28;20306;-70
2023/02/11 08:09:10;;;;;;;38.83;17.03;;;;;;;2.43;100.00;101987.56;5064388;28;20199;-70
2023/02/11 08:11:37;;;;;;;34.27;15.93;;;;;;;2.45;100.00;101985.91;5058677;28;20267;-70
2023/02/11 08:14:03;;;;;;;28.97;15.07;;;;;;;2.51;100.00;101995.50;5050454;28;20301;-70
2023/02/11 08:16:32;;;;;;;28.87;14.87;;;;;;;2.56;100.00;101990.50;5079962;28;20228;-71
2023/02/11 08:19:01;;;;;;;29.47;14.20;;;;;;;2.58;100.00;101984.53;5053650;28;20203;-71
2023/02/11 08:21:29;;;;;;;33.57;15.47;;;;;;;2.60;100.00;101997.47;5067616;28;20202;-70
2023/02/11 08:23:57;;;;;;;29.27;13.60;;;;;;;2.62;100.00;101998.38;5065143;28;20655;-70
2023/02/11 08:26:25;;;;;;;29.50;14.57;;;;;;;2.65;100.00;102001.06;5047915;28;20216;-70
2023/02/11 08:28:54;;;;;;;29.97;14.93;;;;;;;2.66;100.00;102002.81;5063796;28;20469;-70
2023/02/11 08:31:23;;;;;;;30.13;15.87;;;;;;;2.73;100.00;102015.03;5064365;28;20186;-70
2023/02/11 08:33:50;;;;;;;30.57;15.20;;;;;;;2.76;100.00;102009.97;5067797;28;20206;-70
2023/02/11 08:36:19;;;;;;;27.43;14.60;;;;;;;2.80;100.00;102022.09;5067967;28;20249;-70
2023/02/11 08:38:46;;;;;;;30.37;13.93;;;;;;;2.86;100.00;102023.97;5050184;28;20195;-70
2023/02/11 08:41:14;;;;;;;23.50;13.40;;;;;;;2.88;100.00;102021.44;5070034;28;20270;-70
2023/02/11 08:43:41;;;;;;;27.50;13.97;;;;;;;2.90;100.00;102019.75;5047782;28;20283;-70
2023/02/11 08:46:09;;;;;;;30.63;17.30;;;;;;;2.94;100.00;102011.31;5064848;28;20224;-70
2023/02/11 08:48:36;;;;;;;23.37;13.27;;;;;;;3.00;100.00;102011.47;5073879;28;20460;-70
2023/02/11 08:51:06;;;;;;;32.07;15.47;;;;;;;3.02;100.00;102022.69;5070014;28;21355;-70
2023/02/11 08:53:32;;;;;;;31.63;14.17;;;;;;;3.01;100.00;102018.38;5077443;28;20287;-70
2023/02/11 08:55:59;;;;;;;26.43;14.03;;;;;;;2.99;100.00;102031.22;5062235;28;20222;-70
2023/02/11 08:58:26;;;;;;;24.87;13.60;;;;;;;3.02;100.00;102030.41;5067364;28;20283;-70
2023/02/11 09:00:53;;;;;;;23.73;12.83;;;;;;;3.12;100.00;102032.41;5060554;28;20746;-70
2023/02/11 09:03:19;;;;;;;25.63;13.20;;;;;;;3.17;100.00;102045.44;5065310;28;20361;-70
2023/02/11 09:05:48;;;;;;;24.57;13.17;;;;;;;3.22;100.00;102046.44;5065069;28;20714;-70
2023/02/11 09:08:16;;;;;;;23.57;13.30;;;;;;;3.26;100.00;102035.34;5069746;28;20194;-70
2023/02/11 09:10:42;;;;;;;25.63;13.07;;;;;;;3.35;100.00;102048.50;5074709;28;20565;-70
2023/02/11 09:13:09;;;;;;;24.63;13.70;;;;;;;3.41;100.00;102061.56;5070149;28;20202;-70
2023/02/11 09:15:37;;;;;;;25.03;13.17;;;;;;;3.49;100.00;102040.25;5072222;28;20221;-70
2023/02/11 09:18:04;;;;;;;24.63;12.67;;;;;;;3.56;100.00;102037.00;5063579;28;20438;-70
2023/02/11 09:20:31;;;;;;;27.70;13.30;;;;;;;3.63;100.00;102023.41;5067717;28;20203;-70
2023/02/11 09:22:59;;;;;;;24.57;12.77;;;;;;;3.67;100.00;102006.31;5063252;28;20212;-70
2023/02/11 09:25:25;;;;;;;25.73;13.70;;;;;;;3.67;100.00;102020.06;5065529;28;20274;-70
2023/02/11 09:27:52;;;;;;;23.50;13.03;;;;;;;3.79;100.00;102017.78;5064580;28;20300;-70
2023/02/11 09:30:19;;;;;;;24.47;13.37;;;;;;;3.97;100.00;102003.56;5062851;28;20195;-70
2023/02/11 09:32:47;;;;;;;24.73;13.53;;;;;;;4.13;100.00;101989.28;5064272;28;20194;-71
2023/02/11 09:35:13;;;;;;;27.17;13.50;;;;;;;4.14;100.00;101991.91;5071066;28;20276;-70
2023/02/11 09:37:39;;;;;;;26.77;13.73;;;;;;;4.12;100.00;101993.59;5067185;28;20226;-70
2023/02/11 09:40:07;;;;;;;25.27;12.60;;;;;;;4.10;100.00;101995.28;5057574;28;20375;-70
2023/02/11 09:42:43;;;;;;;26.07;11.67;;;;;;;4.15;100.00;101983.34;5058248;28;20570;-70
2023/02/11 09:45:16;;;;;;;22.50;11.80;;;;;;;4.21;100.00;101985.19;5061360;28;20245;-70
2023/02/11 09:47:50;;;;;;;23.13;11.93;;;;;;;4.24;100.00;101979.19;5049147;28;20250;-70
2023/02/11 09:50:22;;;;;;;23.37;12.37;;;;;;;4.20;100.00;101980.84;5070424;28;20207;-70
2023/02/11 09:52:55;;;;;;;22.83;11.90;;;;;;;4.14;100.00;101998.81;5062671;28;20201;-70
2023/02/11 09:55:25;;;;;;;23.83;12.33;;;;;;;4.06;100.00;102008.06;5064167;28;20454;-70
2023/02/11 09:57:51;;;;;;;19.73;11.63;;;;;;;4.09;100.00;102011.59;5064067;28;20779;-70
2023/02/11 10:00:23;;;;;;;25.60;11.83;;;;;;;4.10;100.00;102018.50;5065058;28;20183;-71
2023/02/11 10:03:04;;;;;;;27.10;11.97;;;;;;;4.13;100.00;102028.91;5069837;28;20610;-71
2023/02/11 10:05:59;;;;;;;27.60;13.53;;;;;;;4.15;100.00;102022.06;5072285;28;20539;-70
2023/02/11 10:08:35;;;;;;;26.50;13.70;;;;;;;4.13;100.00;102015.09;5066984;28;20202;-70
2023/02/11 10:11:08;;;;;;;26.33;12.67;;;;;;;4.16;100.00;102016.06;5066843;28;20200;-70
2023/02/11 10:13:48;;;;;;;23.80;13.27;;;;;;;4.18;100.00;102023.84;5049324;28;20198;-70
2023/02/11 10:16:30;;;;;;;21.70;12.10;;;;;;;4.18;100.00;102019.53;5065255;28;20245;-71
2023/02/11 10:19:22;;;;;;;24.77;13.40;;;;;;;4.28;100.00;102017.19;5060969;28;20206;-71
2023/02/11 10:22:06;;;;;;;24.73;12.27;;;;;;;4.38;100.00;102044.97;5045472;28;20300;-71
2023/02/11 10:24:34;;;;;;;23.07;12.30;;;;;;;4.33;100.00;102019.00;5037630;28;20220;-71
2023/02/11 10:27:02;;;;;;;24.23;13.33;;;;;;;4.35;100.00;102021.63;5064327;28;20237;-71
2023/02/11 10:29:36;;;;;;;22.10;12.70;;;;;;;4.40;100.00;102022.63;5067087;28;20194;-71
2023/02/11 10:32:13;;;;;;;22.57;12.70;;;;;;;4.40;100.00;102024.31;5067082;28;21569;-70
2023/02/11 10:34:41;;;;;;;20.93;12.40;;;;;;;4.38;100.00;102025.97;5060777;28;20724;-70
2023/02/11 10:37:09;;;;;;;35.47;17.97;;;;;;;4.35;100.00;102040.56;5062668;28;20586;-70
2023/02/11 10:39:35;;;;;;;18.30;11.57;;;;;;;4.33;100.00;102031.06;5073468;28;20226;-70
2023/02/11 10:42:07;;;;;;;18.10;11.40;;;;;;;4.31;100.00;102020.69;5065360;28;20750;-71
2023/02/11 10:44:37;;;;;;;20.67;12.00;;;;;;;4.27;100.00;102003.38;5069347;28;20238;-70
2023/02/11 10:47:12;;;;;;;21.57;12.17;;;;;;;4.28;100.00;102005.13;5065881;28;20687;-70
2023/02/11 10:49:42;;;;;;;19.07;10.77;;;;;;;4.25;100.00;102010.22;5069718;28;20198;-70
2023/02/11 10:52:19;;;;;;;20.67;12.17;;;;;;;4.27;100.00;102002.50;5061551;28;20573;-71
2023/02/11 10:55:05;;;;;;;20.03;12.07;;;;;;;4.23;100.00;101993.81;5064846;28;20692;-70
2023/02/11 10:57:35;;;;;;;23.90;12.13;;;;;;;4.21;100.00;102003.25;5066036;28;20225;-70
2023/02/11 11:00:07;;;;;;;19.33;11.10;;;;;;;4.23;100.00;102016.19;5076422;28;20287;-70
2023/02/11 11:02:42;;;;;;;18.77;10.93;;;;;;;4.29;100.00;102000.84;5070406;28;20202;-70
2023/02/11 11:05:18;;;;;;;21.47;11.50;;;;;;;4.30;100.00;102010.34;5073676;28;20186;-70
2023/02/11 11:07:54;;;;;;;19.23;10.60;;;;;;;4.29;100.00;102000.84;5058882;28;20210;-71
2023/02/11 11:10:30;;;;;;;21.30;11.33;;;;;;;4.31;100.00;101993.97;5063137;28;20198;-70
2023/02/11 11:12:56;;;;;;;17.27;10.27;;;;;;;4.34;100.00;102005.28;5062661;28;20690;-70
2023/02/11 11:15:25;;;;;;;21.17;11.13;;;;;;;4.35;100.00;102004.41;5066200;28;20314;-70
2023/02/11 11:18:10;;;;;;;19.70;10.70;;;;;;;4.34;100.00;102000.13;5069451;28;20222;-70
2023/02/11 11:20:37;;;;;;;19.50;10.43;;;;;;;4.37;100.00;102009.63;5048003;28;20209;-70